createdAt,value
2023-05-12T00:01:47.225Z,12.70
2023-05-12T00:04:49.491Z,12.60
2023-05-12T00:07:51.119Z,12.60
2023-05-12T00:10:52.689Z,12.50
2023-05-12T00:13:55.317Z,12.50
2023-05-12T00:16:57.030Z,12.50
2023-05-12T00:19:58.591Z,12.50
2023-05-12T00:23:00.305Z,12.50
2023-05-12T00:26:01.943Z,12.50
2023-05-12T00:29:03.735Z,12.50
2023-05-12T00:32:05.833Z,12.50
2023-05-12T00:35:07.900Z,12.50
2023-05-12T00:38:10.321Z,12.50
2023-05-12T00:41:11.883Z,12.50
2023-05-12T00:44:13.592Z,12.50
2023-05-12T00:47:15.320Z,12.50
2023-05-12T00:50:17.364Z,12.60
2023-05-12T00:53:19.064Z,12.60
2023-05-12T00:56:21.764Z,12.60
2023-05-12T00:59:23.350Z,12.60
2023-05-12T01:02:25.107Z,12.60
2023-05-12T01:05:31.759Z,12.50
2023-05-12T01:08:34.811Z,12.50
2023-05-12T01:11:36.385Z,12.50
2023-05-12T01:14:38.683Z,12.50
2023-05-12T01:17:46.923Z,12.50
2023-05-12T01:20:48.923Z,12.50
2023-05-12T01:23:58.499Z,12.50
2023-05-12T01:27:01.144Z,12.50
2023-05-12T01:30:04.880Z,12.50
2023-05-12T01:33:06.724Z,12.50
2023-05-12T01:36:08.478Z,12.50
2023-05-12T01:39:10.192Z,12.50
2023-05-12T01:42:11.843Z,12.50
2023-05-12T01:45:13.460Z,12.50
2023-05-12T01:48:15.057Z,12.50
2023-05-12T01:55:34.393Z,12.60
2023-05-12T01:58:35.985Z,12.60
2023-05-12T02:01:37.715Z,12.60
2023-05-12T02:04:39.880Z,12.60
2023-05-12T02:07:41.602Z,12.60
2023-05-12T02:10:43.207Z,12.60
2023-05-12T02:13:44.792Z,12.60
2023-05-12T02:16:48.795Z,12.60
2023-05-12T02:19:51.175Z,12.60
2023-05-12T02:22:52.769Z,12.50
2023-05-12T02:25:54.339Z,12.50
2023-05-12T02:28:55.989Z,12.40
2023-05-12T02:31:57.648Z,12.40
2023-05-12T02:34:59.263Z,12.40
2023-05-12T02:38:00.855Z,12.50
2023-05-12T02:41:02.467Z,12.40
2023-05-12T02:44:04.157Z,12.40
2023-05-12T02:47:06.007Z,12.50
2023-05-12T02:50:09.081Z,12.40
2023-05-12T02:53:10.651Z,12.40
2023-05-12T02:56:12.222Z,12.30
2023-05-12T02:59:13.902Z,12.30
2023-05-12T03:02:15.522Z,12.30
2023-05-12T03:05:17.351Z,12.30
2023-05-12T03:08:19.085Z,12.30
2023-05-12T03:11:20.712Z,12.30
2023-05-12T03:14:22.298Z,12.30
2023-05-12T03:17:24.108Z,12.30
2023-05-12T03:20:25.760Z,12.20
2023-05-12T03:23:27.346Z,12.20
2023-05-12T03:26:28.956Z,12.20
2023-05-12T03:29:31.283Z,12.20
2023-05-12T03:32:32.970Z,12.20
2023-05-12T03:35:34.573Z,12.20
2023-05-12T03:38:36.293Z,12.20
2023-05-12T03:41:38.402Z,12.30
2023-05-12T03:44:39.984Z,12.30
2023-05-12T03:47:42.134Z,12.30
2023-05-12T03:50:43.785Z,12.30
2023-05-12T03:53:47.546Z,12.20
2023-05-12T03:56:49.158Z,12.20
2023-05-12T03:59:50.817Z,12.30
2023-05-12T04:02:52.557Z,12.30
2023-05-12T04:06:01.348Z,12.30
2023-05-12T04:09:02.955Z,12.20
2023-05-12T04:12:04.953Z,12.20
2023-05-12T04:15:07.022Z,12.20
2023-05-12T04:18:09.842Z,12.30
2023-05-12T04:21:11.413Z,12.30
2023-05-12T04:24:13.000Z,12.20
2023-05-12T04:27:14.662Z,12.30
2023-05-12T04:30:16.892Z,12.30
2023-05-12T04:33:18.530Z,12.30
2023-05-12T04:36:20.405Z,12.30
2023-05-12T04:39:22.094Z,12.30
2023-05-12T04:42:23.756Z,12.40
2023-05-12T04:45:25.400Z,12.40
2023-05-12T04:48:28.068Z,12.40
2023-05-12T04:51:29.664Z,12.40
2023-05-12T04:54:34.707Z,12.40
2023-05-12T04:57:36.286Z,12.50
2023-05-12T05:00:37.898Z,12.50
2023-05-12T05:03:40.515Z,12.50
2023-05-12T05:06:42.258Z,12.40
2023-05-12T05:09:43.828Z,12.40
2023-05-12T05:12:45.510Z,12.50
2023-05-12T05:15:54.025Z,12.50
2023-05-12T05:18:56.677Z,12.50
2023-05-12T05:21:59.796Z,12.50
2023-05-12T05:25:01.428Z,12.60
2023-05-12T05:28:03.059Z,12.60
2023-05-12T05:31:04.754Z,12.70
2023-05-12T05:34:06.430Z,12.70
2023-05-12T05:37:08.020Z,12.80
2023-05-12T05:40:10.150Z,12.90
2023-05-12T05:43:11.771Z,12.90
2023-05-12T05:46:13.366Z,12.90
2023-05-12T05:49:14.948Z,12.90
2023-05-12T05:52:16.758Z,12.80
2023-05-12T05:55:18.795Z,12.80
2023-05-12T05:58:20.850Z,12.80
2023-05-12T06:01:22.542Z,12.80
2023-05-12T06:04:24.189Z,12.80
2023-05-12T06:07:26.146Z,12.80
2023-05-12T06:10:27.985Z,13.00
2023-05-12T06:13:29.590Z,13.00
2023-05-12T06:16:31.349Z,13.00
2023-05-12T06:19:32.981Z,13.00
2023-05-12T06:22:34.766Z,13.00
2023-05-12T06:25:36.417Z,12.90
2023-05-12T06:28:38.038Z,12.90
2023-05-12T06:31:39.744Z,12.90
2023-05-12T06:34:41.379Z,12.80
2023-05-12T06:37:49.204Z,12.80
2023-05-12T06:40:50.773Z,12.90
2023-05-12T06:43:52.579Z,12.90
2023-05-12T06:46:54.315Z,13.00
2023-05-12T06:49:55.879Z,13.00
2023-05-12T06:52:57.602Z,13.20
2023-05-12T06:55:59.269Z,13.30
2023-05-12T06:59:02.710Z,13.30
2023-05-12T07:02:04.387Z,13.30
2023-05-12T07:05:06.350Z,13.30
2023-05-12T07:08:07.932Z,13.30
2023-05-12T07:11:09.677Z,13.40
2023-05-12T07:14:14.195Z,13.50
2023-05-12T07:17:18.594Z,13.50
2023-05-12T07:20:20.333Z,13.60
2023-05-12T07:23:22.275Z,13.60
2023-05-12T07:26:24.232Z,13.70
2023-05-12T07:29:25.798Z,13.80
2023-05-12T07:32:27.543Z,14.00
2023-05-12T07:35:29.179Z,14.10
2023-05-12T07:38:31.001Z,14.20
2023-05-12T07:41:34.370Z,14.20
2023-05-12T07:44:36.242Z,14.30
2023-05-12T07:47:37.865Z,14.30
2023-05-12T07:50:39.892Z,14.30
2023-05-12T07:53:41.500Z,14.20
2023-05-12T07:56:43.043Z,14.20
2023-05-12T07:59:44.617Z,14.10
2023-05-12T08:02:47.230Z,14.10
2023-05-12T08:05:49.052Z,14.00
2023-05-12T08:08:50.636Z,14.00
2023-05-12T08:11:52.246Z,13.90
2023-05-12T08:14:53.904Z,13.80
2023-05-12T08:17:55.473Z,14.00
2023-05-12T08:20:57.114Z,14.20
2023-05-12T08:23:58.717Z,14.40
2023-05-12T08:27:00.330Z,14.50
2023-05-12T08:30:01.944Z,14.50
2023-05-12T08:33:04.162Z,14.50
2023-05-12T08:36:06.029Z,14.60
2023-05-12T08:39:10.138Z,14.70
2023-05-12T08:42:30.399Z,14.80
2023-05-12T08:45:32.134Z,14.90
2023-05-12T08:48:35.273Z,14.90
2023-05-12T08:51:38.257Z,15.00
2023-05-12T08:54:52.266Z,15.10
2023-05-12T08:57:58.740Z,15.10
2023-05-12T09:01:01.545Z,15.30
2023-05-12T09:04:04.771Z,15.50
2023-05-12T09:07:06.981Z,15.60
2023-05-12T09:10:32.313Z,15.90
2023-05-12T09:13:46.177Z,16.10
2023-05-12T09:16:50.646Z,16.20
2023-05-12T09:19:52.278Z,16.50
2023-05-12T09:22:56.229Z,16.70
2023-05-12T09:26:01.577Z,16.80
2023-05-12T09:29:08.074Z,16.70
2023-05-12T09:32:09.745Z,16.70
2023-05-12T09:35:11.971Z,16.70
2023-05-12T09:38:14.581Z,16.40
2023-05-12T09:41:23.453Z,16.20
2023-05-12T09:44:26.055Z,16.10
2023-05-12T09:47:29.367Z,15.90
2023-05-12T09:50:40.852Z,15.70
2023-05-12T09:53:48.412Z,15.60
2023-05-12T09:56:50.920Z,15.50
2023-05-12T09:59:53.403Z,15.40
2023-05-12T10:02:55.152Z,15.50
2023-05-12T10:06:01.429Z,15.80
2023-05-12T10:09:09.888Z,16.00
2023-05-12T10:12:12.369Z,16.40
2023-05-12T10:15:15.212Z,16.70
2023-05-12T10:18:17.461Z,16.80
2023-05-12T10:21:20.073Z,17.10
2023-05-12T10:24:22.328Z,17.20
2023-05-12T10:27:25.660Z,17.40
2023-05-12T10:30:27.563Z,17.30
2023-05-12T10:33:29.207Z,17.20
2023-05-12T10:36:30.844Z,17.20
2023-05-12T10:39:32.899Z,17.30
2023-05-12T10:42:39.410Z,17.50
2023-05-12T10:45:41.686Z,17.30
2023-05-12T10:48:54.778Z,17.20
2023-05-12T10:51:59.878Z,17.10
2023-05-12T10:55:03.848Z,17.00
2023-05-12T10:58:10.889Z,16.90
2023-05-12T11:01:13.561Z,16.90
2023-05-12T11:04:17.464Z,16.80
2023-05-12T11:07:24.928Z,16.90
2023-05-12T11:10:29.395Z,16.80
2023-05-12T11:13:31.456Z,16.50
2023-05-12T11:16:41.614Z,16.40
2023-05-12T11:19:49.468Z,16.10
2023-05-12T11:22:51.563Z,15.90
2023-05-12T11:25:53.685Z,15.90
2023-05-12T11:28:57.291Z,15.90
2023-05-12T11:32:00.442Z,15.90
2023-05-12T11:35:13.454Z,15.90
2023-05-12T11:38:19.232Z,16.00
2023-05-12T11:41:25.000Z,16.00
2023-05-12T11:44:26.622Z,16.00
2023-05-12T11:47:28.349Z,16.00
2023-05-12T11:50:29.942Z,16.00
2023-05-12T11:53:31.566Z,16.00
2023-05-12T11:56:33.263Z,16.00
2023-05-12T11:59:35.584Z,16.10
2023-05-12T12:02:39.565Z,16.30
2023-05-12T12:05:43.664Z,16.40
2023-05-12T12:09:02.237Z,16.60
2023-05-12T12:12:05.772Z,16.90
2023-05-12T12:15:08.564Z,17.00
2023-05-12T12:18:10.329Z,17.20
2023-05-12T12:21:12.030Z,17.40
2023-05-12T12:24:13.697Z,17.50
2023-05-12T12:27:15.282Z,17.50
2023-05-12T12:30:17.069Z,17.60
2023-05-12T12:33:20.566Z,17.80
2023-05-12T12:36:22.492Z,17.80
2023-05-12T12:39:24.161Z,17.90
2023-05-12T12:42:25.823Z,17.70
2023-05-12T12:45:27.517Z,17.50
2023-05-12T12:48:29.166Z,17.30
2023-05-12T12:51:44.662Z,17.30
2023-05-12T12:54:47.083Z,17.30
2023-05-12T12:57:48.642Z,17.40
2023-05-12T13:00:50.373Z,17.60
2023-05-12T13:03:52.005Z,17.70
2023-05-12T13:06:53.572Z,17.50
2023-05-12T13:09:55.235Z,17.30
2023-05-12T13:12:56.845Z,17.10
2023-05-12T13:15:58.478Z,16.90
2023-05-12T13:19:00.143Z,16.70
2023-05-12T13:22:01.927Z,16.60
2023-05-12T13:25:07.490Z,16.50
2023-05-12T13:28:09.094Z,16.60
2023-05-12T13:31:10.841Z,16.70
2023-05-12T13:34:13.790Z,16.70
2023-05-12T13:37:15.679Z,16.90
2023-05-12T13:40:17.329Z,17.10
2023-05-12T13:43:18.947Z,17.20
2023-05-12T13:46:20.649Z,17.40
2023-05-12T13:49:22.315Z,17.60
2023-05-12T13:52:23.892Z,17.70
2023-05-12T13:55:25.983Z,17.70
2023-05-12T13:58:27.798Z,17.70
2023-05-12T14:01:31.231Z,17.60
2023-05-12T14:04:32.804Z,17.70
2023-05-12T14:07:34.492Z,17.90
2023-05-12T14:10:36.177Z,18.20
2023-05-12T14:13:37.841Z,18.30
2023-05-12T14:16:39.520Z,18.40
2023-05-12T14:19:41.202Z,18.30
2023-05-12T14:22:42.880Z,18.30
2023-05-12T14:25:44.476Z,18.10
2023-05-12T14:28:46.299Z,18.00
2023-05-12T14:31:47.971Z,17.90
2023-05-12T14:34:49.582Z,17.60
2023-05-12T14:37:51.180Z,17.50
2023-05-12T14:40:52.804Z,17.40
2023-05-12T14:43:54.394Z,17.40
2023-05-12T14:46:56.016Z,17.60
2023-05-12T14:49:57.592Z,17.80
2023-05-12T14:52:59.278Z,17.80
2023-05-12T14:56:00.958Z,17.80
2023-05-12T14:59:02.581Z,17.80
2023-05-12T15:02:04.266Z,17.90
2023-05-12T15:05:07.384Z,17.90
2023-05-12T15:08:10.476Z,17.90
2023-05-12T15:11:12.071Z,18.10
2023-05-12T15:14:13.746Z,18.10
2023-05-12T15:17:16.017Z,18.20
2023-05-12T15:20:17.838Z,18.10
2023-05-12T15:23:19.430Z,18.00
2023-05-12T15:26:32.691Z,18.00
2023-05-12T15:29:42.064Z,17.90
2023-05-12T15:32:43.748Z,17.80
2023-05-12T15:35:45.341Z,17.90
2023-05-12T15:38:47.209Z,17.70
2023-05-12T15:41:50.320Z,17.60
2023-05-12T15:44:52.623Z,17.50
2023-05-12T15:47:54.389Z,17.50
2023-05-12T15:50:56.022Z,17.50
2023-05-12T15:53:57.890Z,17.60
2023-05-12T15:56:59.473Z,17.70
2023-05-12T16:00:02.230Z,17.70
2023-05-12T16:03:04.164Z,17.80
2023-05-12T16:06:07.064Z,17.90
2023-05-12T16:09:09.691Z,18.10
2023-05-12T16:12:11.704Z,18.00
2023-05-12T16:15:13.470Z,18.00
2023-05-12T16:18:15.150Z,18.00
2023-05-12T16:21:16.984Z,17.80
2023-05-12T16:24:18.681Z,17.60
2023-05-12T16:27:20.227Z,17.40
2023-05-12T16:30:21.847Z,17.30
2023-05-12T16:33:23.833Z,17.10
2023-05-12T16:36:25.491Z,17.00
2023-05-12T16:39:27.119Z,16.90
2023-05-12T16:42:28.760Z,16.90
2023-05-12T16:45:30.572Z,16.90
2023-05-12T16:48:35.028Z,16.90
2023-05-12T16:51:36.625Z,17.00
2023-05-12T16:54:38.238Z,17.00
2023-05-12T16:57:41.448Z,17.10
2023-05-12T17:00:44.895Z,17.10
2023-05-12T17:03:46.667Z,17.00
2023-05-12T17:06:50.066Z,17.00
2023-05-12T17:09:51.765Z,17.00
2023-05-12T17:12:53.578Z,17.00
2023-05-12T17:15:55.190Z,16.90
2023-05-12T17:22:01.407Z,16.80
2023-05-12T17:25:03.150Z,16.80
2023-05-12T17:28:04.910Z,16.80
2023-05-12T17:31:07.154Z,16.80
2023-05-12T17:34:08.985Z,16.70
2023-05-12T17:37:10.595Z,16.70
2023-05-12T17:40:18.197Z,16.70
2023-05-12T17:43:21.293Z,16.60
2023-05-12T17:46:23.066Z,16.60
2023-05-12T17:49:24.761Z,16.50
2023-05-12T17:52:27.353Z,16.50
2023-05-12T17:55:28.942Z,16.40
2023-05-12T17:58:30.622Z,16.40
2023-05-12T18:01:32.274Z,16.40
2023-05-12T18:04:34.699Z,16.30
2023-05-12T18:07:36.491Z,16.30
2023-05-12T18:10:40.230Z,16.30
2023-05-12T18:13:42.263Z,16.20
2023-05-12T18:16:43.955Z,16.20
2023-05-12T18:19:45.903Z,16.20
2023-05-12T18:22:47.780Z,16.10
2023-05-12T18:25:49.433Z,16.10
2023-05-12T18:28:51.428Z,16.00
2023-05-12T18:31:53.142Z,16.00
2023-05-12T18:34:54.766Z,15.90
2023-05-12T18:37:56.938Z,15.90
2023-05-12T18:40:58.508Z,15.80
2023-05-12T18:44:00.212Z,15.80
2023-05-12T18:47:01.853Z,15.70
2023-05-12T18:50:04.198Z,15.70
2023-05-12T18:53:05.775Z,15.60
2023-05-12T18:56:07.585Z,15.60
2023-05-12T18:59:09.404Z,15.50
2023-05-12T19:02:11.060Z,15.50
2023-05-12T19:05:12.797Z,15.50
2023-05-12T19:08:15.576Z,15.40
2023-05-12T19:11:17.397Z,15.40
2023-05-12T19:14:20.159Z,15.30
2023-05-12T19:17:22.003Z,15.20
2023-05-12T19:20:23.730Z,15.20
2023-05-12T19:23:25.399Z,15.20
2023-05-12T19:26:27.017Z,15.10
2023-05-12T19:29:28.590Z,15.10
2023-05-12T19:32:31.419Z,15.00
2023-05-12T19:35:34.440Z,15.00
2023-05-12T19:38:36.936Z,15.00
2023-05-12T19:41:39.428Z,15.00
2023-05-12T19:44:41.081Z,15.00
2023-05-12T19:47:42.867Z,15.00
2023-05-12T19:50:44.704Z,15.00
2023-05-12T19:53:46.387Z,15.00
2023-05-12T19:56:48.091Z,15.00
2023-05-12T19:59:49.763Z,15.00
2023-05-12T20:02:51.464Z,15.00
2023-05-12T20:05:53.310Z,15.00
2023-05-12T20:08:54.932Z,14.90
2023-05-12T20:11:56.775Z,14.90
2023-05-12T20:14:58.355Z,14.90
2023-05-12T20:18:00.843Z,14.90
2023-05-12T20:21:02.857Z,14.80
2023-05-12T20:24:04.784Z,14.80
2023-05-12T20:27:07.664Z,14.80
2023-05-12T20:30:10.213Z,14.70
2023-05-12T20:33:11.951Z,14.70
2023-05-12T20:36:13.694Z,14.60
2023-05-12T20:39:15.670Z,14.60
2023-05-12T20:42:17.305Z,14.50
2023-05-12T20:45:19.588Z,14.40
2023-05-12T20:48:21.380Z,14.30
2023-05-12T20:51:23.589Z,14.20
2023-05-12T20:54:25.187Z,14.20
2023-05-12T20:57:27.433Z,14.00
2023-05-12T21:00:29.088Z,13.90
2023-05-12T21:03:32.568Z,13.80
2023-05-12T21:06:36.507Z,13.70
2023-05-12T21:09:38.144Z,13.70
2023-05-12T21:12:39.812Z,13.60
2023-05-12T21:15:41.380Z,13.50
2023-05-12T21:18:43.031Z,13.40
2023-05-12T21:21:44.672Z,13.40
2023-05-12T21:24:46.317Z,13.20
2023-05-12T21:27:47.894Z,13.20
2023-05-12T21:30:49.530Z,13.10
2023-05-12T21:33:51.092Z,13.10
2023-05-12T21:36:52.797Z,13.00
2023-05-12T21:39:54.350Z,12.90
2023-05-12T21:42:56.150Z,12.90
2023-05-12T21:46:02.506Z,12.80
2023-05-12T21:49:04.173Z,12.80
2023-05-12T21:52:06.449Z,12.70
2023-05-12T21:55:08.509Z,12.60
2023-05-12T21:58:10.304Z,12.50
2023-05-12T22:01:11.929Z,12.50
2023-05-12T22:04:13.621Z,12.40
2023-05-12T22:07:15.228Z,12.40
2023-05-12T22:10:16.946Z,12.20
2023-05-12T22:13:19.202Z,12.10
2023-05-12T22:16:25.655Z,12.00
2023-05-12T22:19:31.054Z,11.90
2023-05-12T22:22:32.668Z,11.90
2023-05-12T22:25:34.442Z,11.80
2023-05-12T22:28:36.455Z,11.80
2023-05-12T22:31:38.115Z,11.80
2023-05-12T22:34:39.729Z,11.80
2023-05-12T22:37:41.416Z,11.80
2023-05-12T22:40:43.105Z,11.70
2023-05-12T22:43:44.706Z,11.70
2023-05-12T22:46:46.329Z,11.70
2023-05-12T22:49:47.955Z,11.60
2023-05-12T22:52:49.619Z,11.60
2023-05-12T22:55:51.219Z,11.60
2023-05-12T22:58:52.780Z,11.50
2023-05-12T23:01:54.354Z,11.40
2023-05-12T23:04:56.186Z,11.40
2023-05-12T23:07:57.756Z,11.30
2023-05-12T23:10:59.331Z,11.30
2023-05-12T23:14:00.919Z,11.30
2023-05-12T23:17:02.646Z,11.30
2023-05-12T23:20:05.519Z,11.30
2023-05-12T23:23:07.147Z,11.30
2023-05-12T23:26:09.434Z,11.20
2023-05-12T23:29:11.119Z,11.20
2023-05-12T23:32:12.802Z,11.20
2023-05-12T23:35:14.405Z,11.20
2023-05-12T23:38:16.201Z,11.20
2023-05-12T23:41:17.851Z,11.20
2023-05-12T23:44:19.431Z,11.20
2023-05-12T23:47:21.066Z,11.10
2023-05-12T23:50:23.058Z,11.10
2023-05-12T23:53:25.004Z,11.00
2023-05-12T23:56:26.635Z,10.90
2023-05-12T23:59:28.283Z,10.90
